createdAt,value
2018-05-29T00:00:35.204Z,2.37
2018-05-29T00:03:02.728Z,2.50
2018-05-29T00:05:30.212Z,2.70
2018-05-29T00:07:57.704Z,2.33
2018-05-29T00:10:25.204Z,2.40
2018-05-29T00:12:52.706Z,2.30
2018-05-29T00:15:20.205Z,2.40
2018-05-29T00:17:47.700Z,2.23
2018-05-29T00:20:15.184Z,2.20
2018-05-29T00:22:42.692Z,2.40
2018-05-29T00:25:10.179Z,2.57
2018-05-29T00:27:38.441Z,2.60
2018-05-29T00:30:06.720Z,2.67
2018-05-29T00:32:34.196Z,2.47
2018-05-29T00:35:02.454Z,2.30
2018-05-29T00:37:29.974Z,2.57
2018-05-29T00:39:57.465Z,2.53
2018-05-29T00:42:24.955Z,2.27
2018-05-29T00:44:52.449Z,2.40
2018-05-29T00:47:19.937Z,2.60
2018-05-29T00:49:47.424Z,2.43
2018-05-29T00:52:14.917Z,2.50
2018-05-29T00:54:42.413Z,2.37
2018-05-29T00:57:09.906Z,2.23
2018-05-29T00:59:37.399Z,2.87
2018-05-29T01:02:04.893Z,2.50
2018-05-29T01:04:32.384Z,2.90
2018-05-29T01:06:59.859Z,2.40
2018-05-29T01:09:27.357Z,2.50
2018-05-29T01:11:55.611Z,2.30
2018-05-29T01:14:23.107Z,2.73
2018-05-29T01:16:51.360Z,2.50
2018-05-29T01:19:18.849Z,2.60
2018-05-29T01:21:47.120Z,2.43
2018-05-29T01:24:14.612Z,2.60
2018-05-29T01:26:42.120Z,2.73
2018-05-29T01:29:09.636Z,2.70
2018-05-29T01:31:37.119Z,2.50
2018-05-29T01:34:04.610Z,2.63
2018-05-29T01:36:32.144Z,2.53
2018-05-29T01:38:59.629Z,2.97
2018-05-29T01:41:27.120Z,3.17
2018-05-29T01:43:55.394Z,2.50
2018-05-29T01:46:22.867Z,2.50
2018-05-29T01:48:50.356Z,2.60
2018-05-29T01:51:17.849Z,2.73
2018-05-29T01:53:45.329Z,2.77
2018-05-29T01:56:12.864Z,2.97
2018-05-29T01:58:40.364Z,2.67
2018-05-29T02:01:07.870Z,2.93
2018-05-29T02:03:35.363Z,2.53
2018-05-29T02:06:02.852Z,3.13
2018-05-29T02:08:30.329Z,2.43
2018-05-29T02:10:57.858Z,2.33
2018-05-29T02:13:25.362Z,3.00
2018-05-29T02:15:52.844Z,2.73
2018-05-29T02:18:21.109Z,2.90
2018-05-29T02:20:48.578Z,3.17
2018-05-29T02:23:16.832Z,3.30
2018-05-29T02:25:44.350Z,3.57
2018-05-29T02:28:11.839Z,3.37
2018-05-29T02:30:39.325Z,2.67
2018-05-29T02:33:06.846Z,3.00
2018-05-29T02:35:34.343Z,3.00
2018-05-29T02:38:01.849Z,3.10
2018-05-29T02:40:29.348Z,3.57
2018-05-29T02:42:56.870Z,3.50
2018-05-29T02:45:24.361Z,2.90
2018-05-29T02:47:51.855Z,3.50
2018-05-29T02:50:19.353Z,3.00
2018-05-29T02:52:46.846Z,3.17
2018-05-29T02:55:14.332Z,3.07
2018-05-29T02:57:41.853Z,3.33
2018-05-29T03:00:09.357Z,3.50
2018-05-29T03:02:36.864Z,3.33
2018-05-29T03:05:05.144Z,3.20
2018-05-29T03:07:33.426Z,2.97
2018-05-29T03:10:01.687Z,3.90
2018-05-29T03:12:29.189Z,3.53
2018-05-29T03:14:56.671Z,3.40
2018-05-29T03:17:24.165Z,3.30
2018-05-29T03:19:51.665Z,3.83
2018-05-29T03:22:19.934Z,3.47
2018-05-29T03:24:48.194Z,3.20
2018-05-29T03:27:15.692Z,3.40
2018-05-29T03:29:43.951Z,3.40
2018-05-29T03:32:12.204Z,3.30
2018-05-29T03:34:39.702Z,3.00
2018-05-29T03:37:07.190Z,3.20
2018-05-29T03:39:34.670Z,2.90
2018-05-29T03:42:02.160Z,2.93
2018-05-29T03:44:29.651Z,3.60
2018-05-29T03:46:57.925Z,3.20
2018-05-29T03:49:25.448Z,3.30
2018-05-29T03:51:52.905Z,3.20
2018-05-29T03:54:20.392Z,3.10
2018-05-29T03:56:47.887Z,3.37
2018-05-29T03:59:16.259Z,3.20
2018-05-29T04:01:43.774Z,3.10
2018-05-29T04:04:11.269Z,3.30
2018-05-29T04:06:38.752Z,3.07
2018-05-29T04:09:06.248Z,3.00
2018-05-29T04:11:33.732Z,3.87
2018-05-29T04:14:01.228Z,3.43
2018-05-29T04:16:28.711Z,3.50
2018-05-29T04:18:56.988Z,3.63
2018-05-29T04:21:25.267Z,3.80
2018-05-29T04:23:53.522Z,3.47
2018-05-29T04:26:21.027Z,4.13
2018-05-29T04:28:48.537Z,3.70
2018-05-29T04:31:16.035Z,3.53
2018-05-29T04:33:43.548Z,3.67
2018-05-29T04:36:11.054Z,3.80
2018-05-29T04:38:38.540Z,4.17
2018-05-29T04:41:06.808Z,3.70
2018-05-29T04:43:35.061Z,3.77
2018-05-29T04:46:02.557Z,3.43
2018-05-29T04:48:30.820Z,3.60
2018-05-29T04:50:58.356Z,3.43
2018-05-29T04:53:25.874Z,3.57
2018-05-29T04:55:53.376Z,3.43
2018-05-29T04:58:20.889Z,3.63
2018-05-29T05:00:49.140Z,3.93
2018-05-29T05:03:16.640Z,3.70
2018-05-29T05:05:44.938Z,3.70
2018-05-29T05:08:12.469Z,4.17
2018-05-29T05:10:39.982Z,4.10
2018-05-29T05:13:07.462Z,3.33
2018-05-29T05:15:34.954Z,3.77
2018-05-29T05:18:02.457Z,3.40
2018-05-29T05:20:30.030Z,3.80
2018-05-29T05:22:57.516Z,3.90
2018-05-29T05:25:25.019Z,3.77
2018-05-29T05:27:53.283Z,3.83
2018-05-29T05:30:20.766Z,3.70
2018-05-29T05:32:49.028Z,3.67
2018-05-29T05:35:16.531Z,3.40
2018-05-29T05:37:44.015Z,3.40
2018-05-29T05:40:11.534Z,3.17
2018-05-29T05:42:39.779Z,3.73
2018-05-29T05:45:07.263Z,3.90
2018-05-29T05:47:34.761Z,3.43
2018-05-29T05:50:02.250Z,3.70
2018-05-29T05:52:29.753Z,3.37
2018-05-29T05:54:57.251Z,3.10
2018-05-29T05:57:24.743Z,3.23
2018-05-29T05:59:52.240Z,3.13
2018-05-29T06:02:19.775Z,3.30
2018-05-29T06:04:47.265Z,2.60
2018-05-29T06:07:14.765Z,3.13
2018-05-29T06:09:42.260Z,2.60
2018-05-29T06:12:10.522Z,2.83
2018-05-29T06:14:38.030Z,3.03
2018-05-29T06:17:05.535Z,2.70
2018-05-29T06:19:33.021Z,2.93
2018-05-29T06:22:00.531Z,3.10
2018-05-29T06:24:28.048Z,2.90
2018-05-29T06:26:55.544Z,2.90
2018-05-29T06:29:23.057Z,2.77
2018-05-29T06:31:50.535Z,3.20
2018-05-29T06:34:18.019Z,2.83
2018-05-29T06:36:45.544Z,3.37
2018-05-29T06:39:13.107Z,3.30
2018-05-29T06:41:40.602Z,3.00
2018-05-29T06:44:08.112Z,2.27
2018-05-29T06:46:36.372Z,2.63
2018-05-29T06:49:03.849Z,3.10
2018-05-29T06:51:32.120Z,3.60
2018-05-29T06:53:59.609Z,3.20
2018-05-29T06:56:27.112Z,2.87
2018-05-29T06:58:54.607Z,3.10
2018-05-29T07:01:22.119Z,2.97
2018-05-29T07:03:49.633Z,3.07
2018-05-29T07:06:17.129Z,2.87
2018-05-29T07:08:45.368Z,3.13
2018-05-29T07:11:12.878Z,2.73
2018-05-29T07:13:40.379Z,3.03
2018-05-29T07:16:07.878Z,2.57
2018-05-29T07:18:35.371Z,2.80
2018-05-29T07:21:02.856Z,2.10
2018-05-29T07:23:30.342Z,2.50
2018-05-29T07:25:57.845Z,2.43
2018-05-29T07:28:26.111Z,2.40
2018-05-29T07:30:53.594Z,2.60
2018-05-29T07:33:21.076Z,2.70
2018-05-29T07:35:48.573Z,2.83
2018-05-29T07:38:16.079Z,2.43
2018-05-29T07:40:43.574Z,2.23
2018-05-29T07:43:11.093Z,2.63
2018-05-29T07:45:39.363Z,2.50
2018-05-29T07:48:07.667Z,2.40
2018-05-29T07:50:35.898Z,3.07
2018-05-29T07:53:03.403Z,2.50
2018-05-29T07:55:31.663Z,2.37
2018-05-29T07:57:59.156Z,2.33
2018-05-29T08:00:26.637Z,2.17
2018-05-29T08:02:54.135Z,2.20
2018-05-29T08:05:21.619Z,2.50
2018-05-29T08:07:49.125Z,2.60
2018-05-29T08:10:16.603Z,2.60
2018-05-29T08:12:44.104Z,2.73
2018-05-29T08:15:11.598Z,2.20
2018-05-29T08:17:39.099Z,2.20
2018-05-29T08:20:06.600Z,2.40
2018-05-29T08:22:34.867Z,2.67
2018-05-29T08:25:02.357Z,2.63
2018-05-29T08:27:29.859Z,2.77
2018-05-29T08:29:57.351Z,2.63
2018-05-29T08:32:24.851Z,2.30
2018-05-29T08:34:52.350Z,2.40
2018-05-29T08:37:19.854Z,2.60
2018-05-29T08:39:47.358Z,2.90
2018-05-29T08:42:14.865Z,2.40
2018-05-29T08:44:42.376Z,2.90
2018-05-29T08:47:09.869Z,2.60
2018-05-29T08:49:37.742Z,2.50
2018-05-29T08:52:05.238Z,2.27
2018-05-29T08:54:32.736Z,2.53
2018-05-29T08:57:00.244Z,2.47
2018-05-29T08:59:27.747Z,2.50
2018-05-29T09:01:56.033Z,2.20
2018-05-29T09:04:23.513Z,2.30
2018-05-29T09:06:51.035Z,2.43
2018-05-29T09:09:18.537Z,2.70
2018-05-29T09:11:46.031Z,2.20
2018-05-29T09:14:14.295Z,2.50
2018-05-29T09:16:41.771Z,2.57
2018-05-29T09:19:09.267Z,2.53
2018-05-29T09:21:36.769Z,2.80
2018-05-29T09:24:04.265Z,2.47
2018-05-29T09:26:31.747Z,2.40
2018-05-29T09:28:59.247Z,2.33
2018-05-29T09:31:27.489Z,2.43
2018-05-29T09:33:54.978Z,2.60
2018-05-29T09:36:23.261Z,2.57
2018-05-29T09:38:51.514Z,2.63
2018-05-29T09:41:19.018Z,2.20
2018-05-29T09:43:47.303Z,2.00
2018-05-29T09:46:14.817Z,2.40
2018-05-29T09:48:42.306Z,2.10
2018-05-29T09:51:10.570Z,2.20
2018-05-29T09:53:38.085Z,2.43
2018-05-29T09:56:05.571Z,2.87
2018-05-29T09:58:33.066Z,2.07
2018-05-29T10:01:00.573Z,2.20
2018-05-29T10:03:28.061Z,2.30
2018-05-29T10:05:56.325Z,2.30
2018-05-29T10:08:23.816Z,2.30
2018-05-29T10:10:51.305Z,2.10
2018-05-29T10:13:19.599Z,2.13
2018-05-29T10:15:47.839Z,1.90
2018-05-29T10:18:15.352Z,1.83
2018-05-29T10:20:42.852Z,2.00
2018-05-29T10:23:10.344Z,2.20
2018-05-29T10:25:37.848Z,2.00
2018-05-29T10:28:05.356Z,2.00
2018-05-29T10:30:32.844Z,2.37
2018-05-29T10:33:01.110Z,1.93
2018-05-29T10:35:28.590Z,1.87
2018-05-29T10:37:56.080Z,1.80
2018-05-29T10:40:23.582Z,1.63
2018-05-29T10:42:51.071Z,2.00
2018-05-29T10:45:18.568Z,1.90
2018-05-29T10:47:46.071Z,2.20
2018-05-29T10:50:13.552Z,1.70
2018-05-29T10:52:41.040Z,1.87
2018-05-29T10:55:09.300Z,1.90
2018-05-29T10:57:36.793Z,2.10
2018-05-29T11:00:05.035Z,2.33
2018-05-29T11:02:32.534Z,2.20
2018-05-29T11:05:00.781Z,1.80
2018-05-29T11:07:28.273Z,1.67
2018-05-29T11:09:56.527Z,2.20
2018-05-29T11:12:24.017Z,2.07
2018-05-29T11:14:52.303Z,2.10
2018-05-29T11:17:20.555Z,2.23
2018-05-29T11:19:48.835Z,1.70
2018-05-29T11:22:17.120Z,1.90
2018-05-29T11:24:45.397Z,2.07
2018-05-29T11:27:12.886Z,1.77
2018-05-29T11:29:41.167Z,2.00
2018-05-29T11:32:09.407Z,2.20
2018-05-29T11:34:36.893Z,2.67
2018-05-29T11:37:04.410Z,2.03
2018-05-29T11:39:31.899Z,2.33
2018-05-29T11:41:59.389Z,2.30
2018-05-29T11:44:27.685Z,1.73
2018-05-29T11:46:55.179Z,2.20
2018-05-29T11:49:22.664Z,2.40
2018-05-29T11:51:50.168Z,2.50
2018-05-29T11:54:18.433Z,2.30
2018-05-29T11:56:46.688Z,2.80
2018-05-29T11:59:14.206Z,2.23
2018-05-29T12:01:41.709Z,2.90
2018-05-29T12:04:09.201Z,2.90
2018-05-29T12:06:36.704Z,2.50
2018-05-29T12:09:04.194Z,2.50
2018-05-29T12:11:31.681Z,2.60
2018-05-29T12:13:59.186Z,2.80
2018-05-29T12:16:26.663Z,2.80
2018-05-29T12:18:54.154Z,2.67
2018-05-29T12:21:21.662Z,2.67
2018-05-29T12:23:49.176Z,2.83
2018-05-29T12:26:16.667Z,2.77
2018-05-29T12:28:44.958Z,2.47
2018-05-29T12:31:13.241Z,2.50
2018-05-29T12:33:41.492Z,2.93
2018-05-29T12:36:09.007Z,2.70
2018-05-29T12:38:36.512Z,2.70
2018-05-29T12:41:04.014Z,2.77
2018-05-29T12:43:31.524Z,2.73
2018-05-29T12:45:59.005Z,2.60
2018-05-29T12:48:26.491Z,2.60
2018-05-29T12:50:54.769Z,2.90
2018-05-29T12:53:22.280Z,2.97
2018-05-29T12:55:49.749Z,3.07
2018-05-29T12:58:17.265Z,3.23
2018-05-29T13:00:45.527Z,3.40
2018-05-29T13:03:13.021Z,3.20
2018-05-29T13:05:41.283Z,3.03
2018-05-29T13:08:08.779Z,3.00
2018-05-29T13:10:36.295Z,3.30
2018-05-29T13:13:03.785Z,2.73
2018-05-29T13:15:31.284Z,2.80
2018-05-29T13:17:58.801Z,2.93
2018-05-29T13:20:27.085Z,3.17
2018-05-29T13:22:55.346Z,2.67
2018-05-29T13:25:22.851Z,3.07
2018-05-29T13:27:50.360Z,2.87
2018-05-29T13:30:17.833Z,3.10
2018-05-29T13:32:45.362Z,2.60
2018-05-29T13:35:12.933Z,2.60
2018-05-29T13:37:40.354Z,2.90
2018-05-29T13:40:08.623Z,2.80
2018-05-29T13:42:36.133Z,2.90
2018-05-29T13:45:03.626Z,2.87
2018-05-29T13:47:31.133Z,2.67
2018-05-29T13:49:58.614Z,2.47
2018-05-29T13:52:26.100Z,2.57
2018-05-29T13:54:54.374Z,2.50
2018-05-29T13:57:21.861Z,3.10
2018-05-29T13:59:49.342Z,2.73
2018-05-29T14:02:17.619Z,2.60
2018-05-29T14:04:45.100Z,2.20
2018-05-29T14:07:12.578Z,2.40
2018-05-29T14:09:40.084Z,2.80
2018-05-29T14:12:07.613Z,2.70
2018-05-29T14:14:35.105Z,3.00
2018-05-29T14:17:02.603Z,2.47
2018-05-29T14:19:30.866Z,2.83
2018-05-29T14:21:58.397Z,2.60
2018-05-29T14:24:25.929Z,2.50
2018-05-29T14:26:54.178Z,2.57
2018-05-29T14:29:21.679Z,2.70
2018-05-29T14:31:49.169Z,2.40
2018-05-29T14:34:16.693Z,2.30
2018-05-29T14:36:44.945Z,2.13
2018-05-29T14:39:12.459Z,2.20
2018-05-29T14:41:39.957Z,2.20
2018-05-29T14:44:07.544Z,2.78
2018-05-29T14:46:34.963Z,2.60
2018-05-29T14:49:02.466Z,2.35
2018-05-29T14:51:29.956Z,2.35
2018-05-29T14:53:57.433Z,2.40
2018-05-29T14:56:24.945Z,2.50
2018-05-29T14:58:52.484Z,2.37
2018-05-29T15:01:19.970Z,2.50
2018-05-29T15:03:47.468Z,2.90
2018-05-29T15:06:14.992Z,2.53
2018-05-29T15:08:42.502Z,2.50
2018-05-29T15:11:10.018Z,2.40
2018-05-29T15:13:37.531Z,2.40
2018-05-29T15:16:05.030Z,2.33
2018-05-29T15:18:32.566Z,2.40
2018-05-29T15:21:00.038Z,2.70
2018-05-29T15:23:27.520Z,2.30
2018-05-29T15:25:55.792Z,2.57
2018-05-29T15:28:23.306Z,2.70
2018-05-29T15:30:50.824Z,2.12
2018-05-29T15:33:18.338Z,2.55
2018-05-29T15:35:45.829Z,2.40
2018-05-29T15:38:13.318Z,2.20
2018-05-29T15:40:40.832Z,2.35
2018-05-29T15:43:08.346Z,2.10
2018-05-29T15:45:35.873Z,2.20
2018-05-29T15:48:03.364Z,2.03
2018-05-29T15:50:30.864Z,2.00
2018-05-29T15:52:58.368Z,2.35
2018-05-29T15:55:25.877Z,2.12
2018-05-29T15:57:53.375Z,2.17
2018-05-29T16:00:21.655Z,1.80
2018-05-29T16:02:49.149Z,1.67
2018-05-29T16:05:16.644Z,1.80
2018-05-29T16:07:44.136Z,1.90
2018-05-29T16:10:12.417Z,2.03
2018-05-29T16:12:39.935Z,2.30
2018-05-29T16:15:08.223Z,2.10
2018-05-29T16:17:35.721Z,1.83
2018-05-29T16:20:03.993Z,2.00
2018-05-29T16:22:31.482Z,1.77
2018-05-29T16:24:59.725Z,1.90
2018-05-29T16:27:27.235Z,2.00
2018-05-29T16:29:54.723Z,2.00
2018-05-29T16:32:22.235Z,2.13
2018-05-29T16:34:50.513Z,2.07
2018-05-29T16:37:17.994Z,1.90
2018-05-29T16:39:46.257Z,2.00
2018-05-29T16:42:14.524Z,2.03
2018-05-29T16:44:42.003Z,1.90
2018-05-29T16:47:09.505Z,2.00
2018-05-29T16:49:37.028Z,1.90
2018-05-29T16:52:05.293Z,2.27
2018-05-29T16:54:32.785Z,1.97
2018-05-29T16:57:01.058Z,2.10
2018-05-29T16:59:28.565Z,2.07
2018-05-29T17:01:56.086Z,1.90
2018-05-29T17:04:24.342Z,2.00
2018-05-29T17:06:51.840Z,2.20
2018-05-29T17:09:19.337Z,2.03
2018-05-29T17:11:46.856Z,1.97
2018-05-29T17:14:15.118Z,2.00
2018-05-29T17:16:42.647Z,2.20
2018-05-29T17:19:10.135Z,2.07
2018-05-29T17:21:37.630Z,2.20
2018-05-29T17:24:05.897Z,2.10
2018-05-29T17:26:33.380Z,1.90
2018-05-29T17:29:00.876Z,2.00
2018-05-29T17:31:28.408Z,1.90
2018-05-29T17:33:55.892Z,2.00
2018-05-29T17:36:23.418Z,2.00
2018-05-29T17:38:51.686Z,2.00
2018-05-29T17:41:19.180Z,1.93
2018-05-29T17:43:47.435Z,1.90
2018-05-29T17:46:14.920Z,2.00
2018-05-29T17:48:43.161Z,2.40
2018-05-29T17:51:10.700Z,2.40
2018-05-29T17:53:38.193Z,2.30
2018-05-29T17:56:05.883Z,2.33
2018-05-29T17:58:33.571Z,2.50
2018-05-29T18:01:01.075Z,2.30
2018-05-29T18:03:28.752Z,2.80
2018-05-29T18:05:57.045Z,2.83
2018-05-29T18:08:24.529Z,2.93
2018-05-29T18:10:52.795Z,2.50
2018-05-29T18:13:20.500Z,2.67
2018-05-29T18:15:48.017Z,2.90
2018-05-29T18:18:15.731Z,3.10
2018-05-29T18:20:43.502Z,2.90
2018-05-29T18:23:11.229Z,3.03
2018-05-29T18:25:38.769Z,2.90
2018-05-29T18:28:06.386Z,2.90
2018-05-29T18:30:33.959Z,3.27
2018-05-29T18:33:01.466Z,3.23
2018-05-29T18:35:29.021Z,3.00
2018-05-29T18:37:56.569Z,2.83
2018-05-29T18:40:24.114Z,3.00
2018-05-29T18:42:51.641Z,3.37
2018-05-29T18:45:19.141Z,2.70
2018-05-29T18:47:46.666Z,3.53
2018-05-29T18:50:14.180Z,2.53
2018-05-29T18:52:41.673Z,2.63
2018-05-29T18:55:09.203Z,3.50
2018-05-29T18:57:36.692Z,3.00
2018-05-29T19:00:04.953Z,3.13
2018-05-29T19:02:32.458Z,2.70
2018-05-29T19:04:59.948Z,2.97
2018-05-29T19:07:28.210Z,2.77
2018-05-29T19:09:55.774Z,4.67
2018-05-29T19:12:23.208Z,3.33
2018-05-29T19:14:50.706Z,3.07
2018-05-29T19:17:18.206Z,2.77
2018-05-29T19:19:45.709Z,2.50
2018-05-29T19:22:13.216Z,4.00
2018-05-29T19:24:41.486Z,3.80
2018-05-29T19:27:09.743Z,3.27
2018-05-29T19:29:37.265Z,2.57
2018-05-29T19:32:04.756Z,2.57
2018-05-29T19:34:32.248Z,2.40
2018-05-29T19:37:00.524Z,2.47
2018-05-29T19:39:28.030Z,2.70
2018-05-29T19:41:55.510Z,2.77
2018-05-29T19:44:22.997Z,2.70
2018-05-29T19:46:50.491Z,3.20
2018-05-29T19:49:17.982Z,3.27
2018-05-29T19:51:45.519Z,3.33
2018-05-29T19:54:13.023Z,2.80
2018-05-29T19:56:40.509Z,2.53
2018-05-29T19:59:08.017Z,3.50
2018-05-29T20:01:35.507Z,3.60
2018-05-29T20:04:02.997Z,3.37
2018-05-29T20:06:30.502Z,3.50
2018-05-29T20:08:58.749Z,2.37
2018-05-29T20:11:26.233Z,2.80
2018-05-29T20:13:54.497Z,2.77
2018-05-29T20:16:21.995Z,2.63
2018-05-29T20:18:49.474Z,2.60
2018-05-29T20:21:16.977Z,3.20
2018-05-29T20:23:44.477Z,2.70
2018-05-29T20:26:12.739Z,2.93
2018-05-29T20:28:40.225Z,2.37
2018-05-29T20:31:07.731Z,2.83
2018-05-29T20:33:35.229Z,3.10
2018-05-29T20:36:03.501Z,2.97
2018-05-29T20:38:30.995Z,3.33
2018-05-29T20:40:58.505Z,4.23
2018-05-29T20:43:26.009Z,3.67
2018-05-29T20:45:54.280Z,3.77
2018-05-29T20:48:22.551Z,3.70
2018-05-29T20:50:50.080Z,3.40
2018-05-29T20:53:17.572Z,3.23
2018-05-29T20:55:45.083Z,4.30
2018-05-29T20:58:12.608Z,3.27
2018-05-29T21:00:40.099Z,3.23
2018-05-29T21:03:07.592Z,3.30
2018-05-29T21:05:35.098Z,3.00
2018-05-29T21:08:02.601Z,3.37
2018-05-29T21:10:30.097Z,3.10
2018-05-29T21:12:57.582Z,3.20
2018-05-29T21:15:25.109Z,2.73
2018-05-29T21:17:52.584Z,2.70
2018-05-29T21:20:20.069Z,2.80
2018-05-29T21:22:47.592Z,3.17
2018-05-29T21:25:15.078Z,2.80
2018-05-29T21:27:42.570Z,2.53
2018-05-29T21:30:10.064Z,3.10
2018-05-29T21:32:37.561Z,2.80
2018-05-29T21:35:05.097Z,2.47
2018-05-29T21:37:33.351Z,2.40
2018-05-29T21:40:01.620Z,2.87
2018-05-29T21:42:29.883Z,2.90
2018-05-29T21:44:57.390Z,2.87
2018-05-29T21:47:24.878Z,2.63
2018-05-29T21:49:52.374Z,2.90
2018-05-29T21:52:19.877Z,3.20
2018-05-29T21:54:47.370Z,3.00
2018-05-29T21:57:14.872Z,3.40
2018-05-29T21:59:42.375Z,4.00
2018-05-29T22:02:09.863Z,3.40
2018-05-29T22:04:37.395Z,3.20
2018-05-29T22:07:04.886Z,3.50
2018-05-29T22:09:32.389Z,3.17
2018-05-29T22:11:59.900Z,2.90
2018-05-29T22:14:27.393Z,3.30
2018-05-29T22:16:54.894Z,2.80
2018-05-29T22:19:23.150Z,3.00
2018-05-29T22:21:50.653Z,2.70
2018-05-29T22:24:18.130Z,2.40
2018-05-29T22:26:45.619Z,2.80
2018-05-29T22:29:13.124Z,3.37
2018-05-29T22:31:41.408Z,3.33
2018-05-29T22:34:09.680Z,3.40
2018-05-29T22:36:37.941Z,3.30
2018-05-29T22:39:05.437Z,3.70
2018-05-29T22:41:33.692Z,3.17
2018-05-29T22:44:01.185Z,2.87
2018-05-29T22:46:28.699Z,2.63
2018-05-29T22:48:56.187Z,2.80
2018-05-29T22:51:23.679Z,2.90
2018-05-29T22:53:51.187Z,2.73
2018-05-29T22:56:18.698Z,2.50
2018-05-29T22:58:46.175Z,2.87
2018-05-29T23:01:13.670Z,2.60
2018-05-29T23:03:41.179Z,2.50
2018-05-29T23:06:09.446Z,3.30
2018-05-29T23:08:36.932Z,3.40
2018-05-29T23:11:05.192Z,3.10
2018-05-29T23:13:32.684Z,2.77
2018-05-29T23:16:00.184Z,2.53
2018-05-29T23:18:28.433Z,2.90
2018-05-29T23:20:55.943Z,2.83
2018-05-29T23:23:23.419Z,2.90
2018-05-29T23:25:50.915Z,2.80
2018-05-29T23:28:18.422Z,3.43
2018-05-29T23:30:45.908Z,3.50
2018-05-29T23:33:13.401Z,3.30
2018-05-29T23:35:40.933Z,2.87
2018-05-29T23:38:08.417Z,3.53
2018-05-29T23:40:36.666Z,3.50
2018-05-29T23:43:04.201Z,3.47
2018-05-29T23:45:31.703Z,3.17
2018-05-29T23:47:59.204Z,3.27
2018-05-29T23:50:26.706Z,3.60
2018-05-29T23:52:54.191Z,2.93
2018-05-29T23:55:21.695Z,3.30
2018-05-29T23:57:49.191Z,3.37
